TAM4795 SBVT-SBBR
Flight info
| Callsign | TAM4795 |
|---|---|
| Flight time | N/A |
| Altitude | 32000 |
| Route | OPLOX UZ40 OPGOL |
| Aircraft | A321/M-SDE3FGHIRWY/LB1 |
Departure
| Time | 2026-05-01 14:56 |
|---|---|
| Airport | Eurico de Aguiar Salles International Airport (SBVT) |
Arrival
| Time | N/A |
|---|---|
| Airport | Presidente Juscelino Kubitschek International Airport (SBBR) |
| Time | Latitude | Longitude | Altitude | Speed | Heading |
|---|---|---|---|---|---|
| 2026-05-01 14:32 | -20.26501 | -40.28170 | 18 ft | 0 kts | 262° |
| 2026-05-01 14:47 | -20.26499 | -40.28155 | 18 ft | 2 kts | 262° |
| 2026-05-01 14:47 | -20.26497 | -40.28140 | 18 ft | 2 kts | 262° |
| 2026-05-01 14:47 | -20.26495 | -40.28124 | 18 ft | 2 kts | 268° |
| 2026-05-01 14:48 | -20.26512 | -40.28100 | 18 ft | 1 kts | 345° |
| 2026-05-01 14:48 | -20.26518 | -40.28099 | 18 ft | 1 kts | 355° |
| 2026-05-01 14:48 | -20.26522 | -40.28098 | 18 ft | 0 kts | 352° |
| 2026-05-01 14:50 | -20.26520 | -40.28099 | 18 ft | 0 kts | 353° |
| 2026-05-01 14:50 | -20.26425 | -40.28076 | 18 ft | 9 kts | 15° |
| 2026-05-01 14:51 | -20.26358 | -40.28066 | 18 ft | 10 kts | 2° |
| 2026-05-01 14:51 | -20.26200 | -40.28084 | 17 ft | 12 kts | 352° |
| 2026-05-01 14:52 | -20.26018 | -40.28111 | 17 ft | 13 kts | 352° |
| 2026-05-01 14:52 | -20.25921 | -40.28125 | 17 ft | 14 kts | 352° |
| 2026-05-01 14:52 | -20.25715 | -40.28156 | 17 ft | 15 kts | 352° |
| 2026-05-01 14:53 | -20.25607 | -40.28172 | 17 ft | 15 kts | 352° |
| 2026-05-01 14:53 | -20.25497 | -40.28189 | 17 ft | 16 kts | 352° |
| 2026-05-01 14:53 | -20.25391 | -40.28199 | 17 ft | 15 kts | 9° |
| 2026-05-01 14:53 | -20.25295 | -40.28148 | 16 ft | 15 kts | 31° |
| 2026-05-01 14:54 | -20.25202 | -40.28086 | 16 ft | 15 kts | 31° |
| 2026-05-01 14:54 | -20.25094 | -40.28073 | 15 ft | 16 kts | 352° |
| 2026-05-01 14:54 | -20.24980 | -40.28090 | 15 ft | 16 kts | 352° |
| 2026-05-01 14:54 | -20.24867 | -40.28106 | 15 ft | 15 kts | 356° |
| 2026-05-01 14:55 | -20.24779 | -40.28099 | 14 ft | 9 kts | 306° |
| 2026-05-01 14:55 | -20.24786 | -40.28120 | 14 ft | 2 kts | 177° |
| 2026-05-01 14:55 | -20.24793 | -40.28119 | 14 ft | 1 kts | 172° |
| 2026-05-01 14:55 | -20.24998 | -40.28088 | 15 ft | 68 kts | 172° |
| 2026-05-01 14:56 | -20.25722 | -40.27980 | 17 ft | 138 kts | 172° |
| 2026-05-01 14:56 | -20.26857 | -40.27822 | 221 ft | 177 kts | 172° |
| 2026-05-01 14:56 | -20.28074 | -40.27652 | 848 ft | 179 kts | 172° |
| 2026-05-01 14:56 | -20.29350 | -40.27481 | 1193 ft | 194 kts | 171° |
| 2026-05-01 14:57 | -20.30756 | -40.27276 | 1476 ft | 212 kts | 171° |
| 2026-05-01 14:57 | -20.33945 | -40.26781 | 2198 ft | 245 kts | 170° |
| 2026-05-01 14:57 | -20.35639 | -40.26591 | 2918 ft | 247 kts | 182° |
| 2026-05-01 14:58 | -20.37248 | -40.27187 | 3602 ft | 251 kts | 217° |
| 2026-05-01 14:58 | -20.38321 | -40.28633 | 4275 ft | 254 kts | 249° |
| 2026-05-01 14:58 | -20.38546 | -40.30477 | 4905 ft | 256 kts | 281° |
| 2026-05-01 14:58 | -20.37875 | -40.32204 | 5540 ft | 255 kts | 305° |
| 2026-05-01 14:59 | -20.36882 | -40.33817 | 6005 ft | 268 kts | 305° |
| 2026-05-01 14:59 | -20.35846 | -40.35536 | 6433 ft | 281 kts | 304° |
| 2026-05-01 14:59 | -20.34795 | -40.37318 | 7040 ft | 287 kts | 304° |
| 2026-05-01 14:59 | -20.33741 | -40.39125 | 7683 ft | 289 kts | 304° |
| 2026-05-01 15:00 | -20.31626 | -40.42785 | 8860 ft | 296 kts | 304° |
| 2026-05-01 15:00 | -20.30545 | -40.44661 | 9433 ft | 299 kts | 303° |
| 2026-05-01 15:00 | -20.29450 | -40.46558 | 9989 ft | 303 kts | 303° |
| 2026-05-01 15:01 | -20.28342 | -40.48474 | 10506 ft | 306 kts | 303° |
| 2026-05-01 15:01 | -20.27201 | -40.50448 | 10775 ft | 320 kts | 303° |
| 2026-05-01 15:01 | -20.26010 | -40.52510 | 11019 ft | 333 kts | 302° |
| 2026-05-01 15:01 | -20.24707 | -40.54603 | 11302 ft | 343 kts | 307° |
| 2026-05-01 15:02 | -20.23233 | -40.56620 | 11768 ft | 346 kts | 310° |
| 2026-05-01 15:02 | -20.22207 | -40.57924 | 12106 ft | 347 kts | 310° |
| 2026-05-01 15:02 | -20.20109 | -40.60563 | 12749 ft | 350 kts | 310° |
| 2026-05-01 15:02 | -20.18544 | -40.62527 | 13178 ft | 353 kts | 310° |
| 2026-05-01 15:03 | -20.16950 | -40.64529 | 13629 ft | 356 kts | 310° |
| 2026-05-01 15:03 | -20.15345 | -40.66546 | 14088 ft | 357 kts | 310° |
| 2026-05-01 15:03 | -20.13739 | -40.68568 | 14548 ft | 358 kts | 310° |
| 2026-05-01 15:03 | -20.12123 | -40.70600 | 14974 ft | 361 kts | 310° |
| 2026-05-01 15:04 | -20.10498 | -40.72644 | 15409 ft | 363 kts | 310° |
| 2026-05-01 15:04 | -20.08865 | -40.74698 | 15835 ft | 364 kts | 310° |
| 2026-05-01 15:04 | -20.07225 | -40.76760 | 16253 ft | 366 kts | 309° |
| 2026-05-01 15:04 | -20.05575 | -40.78834 | 16638 ft | 368 kts | 309° |
| 2026-05-01 15:05 | -20.03940 | -40.80888 | 17030 ft | 370 kts | 309° |
| 2026-05-01 15:05 | -20.02274 | -40.82982 | 17420 ft | 371 kts | 309° |
| 2026-05-01 15:05 | -20.00602 | -40.85083 | 17798 ft | 373 kts | 309° |
| 2026-05-01 15:05 | -19.98917 | -40.87198 | 18178 ft | 375 kts | 309° |
| 2026-05-01 15:06 | -19.97227 | -40.89319 | 18546 ft | 377 kts | 309° |
| 2026-05-01 15:06 | -19.95528 | -40.91449 | 18913 ft | 379 kts | 309° |
| 2026-05-01 15:06 | -19.93822 | -40.93592 | 19283 ft | 381 kts | 309° |
| 2026-05-01 15:06 | -19.92106 | -40.95744 | 19645 ft | 382 kts | 309° |
| 2026-05-01 15:07 | -19.90402 | -40.97877 | 20301 ft | 374 kts | 309° |
| 2026-05-01 15:07 | -19.88742 | -40.99953 | 21027 ft | 365 kts | 309° |
| 2026-05-01 15:07 | -19.87154 | -41.02005 | 21508 ft | 363 kts | 307° |
| 2026-05-01 15:07 | -19.85684 | -41.04188 | 21870 ft | 365 kts | 302° |
| 2026-05-01 15:08 | -19.84357 | -41.06513 | 22058 ft | 372 kts | 298° |
| 2026-05-01 15:08 | -19.83085 | -41.08938 | 22212 ft | 380 kts | 298° |
| 2026-05-01 15:08 | -19.81794 | -41.11422 | 22362 ft | 388 kts | 298° |
| 2026-05-01 15:08 | -19.80477 | -41.13955 | 22529 ft | 395 kts | 298° |
| 2026-05-01 15:09 | -19.79139 | -41.16519 | 22806 ft | 398 kts | 298° |
| 2026-05-01 15:09 | -19.77790 | -41.19094 | 23148 ft | 400 kts | 298° |
| 2026-05-01 15:09 | -19.76434 | -41.21681 | 23487 ft | 402 kts | 298° |
| 2026-05-01 15:09 | -19.75089 | -41.24242 | 23813 ft | 404 kts | 298° |
| 2026-05-01 15:10 | -19.73718 | -41.26850 | 24137 ft | 406 kts | 298° |
| 2026-05-01 15:10 | -19.70954 | -41.32106 | 24765 ft | 410 kts | 298° |
| 2026-05-01 15:10 | -19.69563 | -41.34755 | 25077 ft | 412 kts | 298° |
| 2026-05-01 15:11 | -19.68164 | -41.37415 | 25386 ft | 414 kts | 298° |
| 2026-05-01 15:11 | -19.65344 | -41.42772 | 25989 ft | 418 kts | 298° |
| 2026-05-01 15:11 | -19.63924 | -41.45467 | 26291 ft | 420 kts | 298° |
| 2026-05-01 15:12 | -19.62497 | -41.48174 | 26588 ft | 422 kts | 298° |
| 2026-05-01 15:12 | -19.59621 | -41.53625 | 27166 ft | 425 kts | 298° |
| 2026-05-01 15:12 | -19.58174 | -41.56365 | 27453 ft | 427 kts | 298° |
| 2026-05-01 15:13 | -19.53818 | -41.64614 | 28298 ft | 432 kts | 298° |
| 2026-05-01 15:14 | -19.50873 | -41.70190 | 28847 ft | 435 kts | 298° |
| 2026-05-01 15:14 | -19.49390 | -41.72995 | 29112 ft | 437 kts | 298° |
| 2026-05-01 15:14 | -19.46415 | -41.78616 | 29797 ft | 437 kts | 298° |
| 2026-05-01 15:15 | -19.43452 | -41.84216 | 30522 ft | 436 kts | 298° |
| 2026-05-01 15:15 | -19.40482 | -41.89824 | 31080 ft | 438 kts | 298° |
| 2026-05-01 15:16 | -19.37549 | -41.95440 | 31638 ft | 440 kts | 298° |
| 2026-05-01 15:16 | -19.34586 | -42.01120 | 32141 ft | 442 kts | 298° |
| 2026-05-01 15:18 | -19.26760 | -42.15177 | 32156 ft | 444 kts | 300° |
| 2026-05-01 15:19 | -19.20406 | -42.26454 | 32167 ft | 456 kts | 300° |
| 2026-05-01 15:19 | -19.17198 | -42.32147 | 33323 ft | 441 kts | 300° |
| 2026-05-01 15:19 | -19.15644 | -42.34904 | 33933 ft | 434 kts | 300° |
| 2026-05-01 15:20 | -19.12530 | -42.40427 | 34154 ft | 442 kts | 300° |
| 2026-05-01 15:20 | -19.10942 | -42.43240 | 34155 ft | 448 kts | 300° |
| 2026-05-01 15:21 | -19.07836 | -42.49026 | 34163 ft | 458 kts | 297° |
| 2026-05-01 15:21 | -19.04774 | -42.54939 | 34173 ft | 464 kts | 297° |
| 2026-05-01 15:22 | -19.00103 | -42.63903 | 34183 ft | 465 kts | 297° |
| 2026-05-01 15:22 | -18.96964 | -42.69906 | 34188 ft | 465 kts | 298° |
| 2026-05-01 15:23 | -18.93859 | -42.75833 | 34196 ft | 464 kts | 298° |
| 2026-05-01 15:23 | -18.90688 | -42.81757 | 34199 ft | 464 kts | 299° |
| 2026-05-01 15:24 | -18.87426 | -42.87644 | 34202 ft | 464 kts | 299° |
| 2026-05-01 15:24 | -18.84170 | -42.93537 | 34211 ft | 465 kts | 299° |
| 2026-05-01 15:25 | -18.80941 | -42.99393 | 34217 ft | 465 kts | 299° |
| 2026-05-01 15:25 | -18.77692 | -43.05304 | 34217 ft | 465 kts | 298° |
| 2026-05-01 15:26 | -18.74503 | -43.11244 | 34217 ft | 465 kts | 298° |
| 2026-05-01 15:26 | -18.71323 | -43.17180 | 34215 ft | 465 kts | 298° |
| 2026-05-01 15:27 | -18.68133 | -43.23110 | 34209 ft | 465 kts | 298° |
| 2026-05-01 15:28 | -18.63425 | -43.32005 | 34213 ft | 466 kts | 298° |
| 2026-05-01 15:28 | -18.60270 | -43.37965 | 34217 ft | 466 kts | 298° |
| 2026-05-01 15:29 | -18.55529 | -43.46922 | 34226 ft | 467 kts | 298° |
| 2026-05-01 15:30 | -18.49245 | -43.58835 | 34235 ft | 466 kts | 297° |
| 2026-05-01 15:31 | -18.39966 | -43.76851 | 34245 ft | 467 kts | 298° |
| 2026-05-01 15:32 | -18.33783 | -43.88805 | 34242 ft | 467 kts | 298° |
| 2026-05-01 15:34 | -18.24435 | -44.06836 | 34226 ft | 467 kts | 298° |